New Wells, Missouri
Current Conditions -  °F | °C
As of 4:42 AM on Thursday 23 Oct 2014 (Local Time) from KCGI Reporting Station
Haze Haze  
Wind Chill: 36°   Ceiling: Unl
Heat Index: 36°   Visibility: 4mi
Dew Point: 36°   Wind: 0mph
Humidity: 100%   Direction: NA
Pressure: 30.21"   Gusts: NA
Location:  37.5371°N, 89.5821°W
Report Text: KCGI 230942Z AUTO 00000KT 4SM BR FEW002 02/02 A3021 RMK AO2 SNB03E12 P0000 TSNO
Loading
Personal Weather Stations






























Interactive Weather Map
Tropical Storm Tracking
New forecast layout! Learn more

10-Day Weather Forecast

Advertisements
Track Severe Weather on mobile